Time;durP1;ratioP1;P1;durP2;ratioP2;P2;SDS_P1;SDS_P2;PMS_P1;PMS_P2;Temp;Humidity;BMP_temperature;BMP_pressure;BME280_temperature;BME280_humidity;BME280_pressure;Samples;Min_cycle;Max_cycle;Signal;HPM_P1;HPM_P2
2023/02/27 00:02:04;;;;;;;5.50;3.03;;;;;;;-2.19;52.13;100822.88;10342953;28;20890;-79
2023/02/27 00:07:07;;;;;;;8.98;3.08;;;;;;;-2.25;52.25;100822.84;10347839;28;20050;-80
2023/02/27 00:12:09;;;;;;;7.32;3.67;;;;;;;-2.31;52.31;100826.22;10347989;28;20046;-80
2023/02/27 00:17:11;;;;;;;8.68;3.47;;;;;;;-2.34;52.42;100825.31;10347500;28;20073;-80
2023/02/27 00:22:12;;;;;;;7.28;3.78;;;;;;;-2.36;52.53;100827.88;10349130;28;20057;-79
2023/02/27 00:27:14;;;;;;;9.07;4.38;;;;;;;-2.42;52.60;100832.97;10348551;28;20049;-79
2023/02/27 00:32:16;;;;;;;7.47;3.72;;;;;;;-2.45;53.10;100838.06;10347888;28;20050;-80
2023/02/27 00:37:18;;;;;;;12.00;4.95;;;;;;;-2.51;53.13;100837.19;10348542;28;20134;-80
2023/02/27 00:42:19;;;;;;;10.93;4.65;;;;;;;-2.55;53.25;100840.56;10345842;28;20048;-80
2023/02/27 00:47:21;;;;;;;9.05;4.18;;;;;;;-2.56;53.40;100839.69;10343355;28;20056;-80
2023/02/27 00:52:23;;;;;;;9.07;4.22;;;;;;;-2.55;53.25;100841.41;10349810;28;20077;-80
2023/02/27 00:57:25;;;;;;;5.22;2.70;;;;;;;-2.61;53.45;100841.34;10345738;28;20057;-80
2023/02/27 01:02:27;;;;;;;7.00;3.60;;;;;;;-2.66;54.16;100844.72;10350031;28;20065;-79
2023/02/27 01:07:29;;;;;;;11.35;5.18;;;;;;;-2.75;54.60;100840.38;10344749;28;20103;-80
2023/02/27 01:12:30;;;;;;;8.55;4.28;;;;;;;-2.80;54.80;100847.19;10345575;28;20050;-80
2023/02/27 01:17:33;;;;;;;10.30;4.15;;;;;;;-2.94;55.32;100836.81;10339901;28;20054;-79
2023/02/27 01:22:34;;;;;;;7.32;3.20;;;;;;;-2.96;55.54;100841.03;10347937;28;20056;-79
2023/02/27 01:27:36;;;;;;;7.20;3.55;;;;;;;-3.10;55.37;100852.84;10346218;28;20160;-80
2023/02/27 01:32:38;;;;;;;7.80;3.72;;;;;;;-3.22;55.95;100854.47;10345802;28;20653;-79
2023/02/27 01:37:40;;;;;;;6.72;3.50;;;;;;;-3.35;55.57;100850.91;10348348;28;20505;-79
2023/02/27 01:42:42;;;;;;;6.93;3.72;;;;;;;-3.43;55.75;100849.09;10345545;28;20057;-80
2023/02/27 01:47:51;;;;;;;8.90;3.53;;;;;;;-3.40;55.96;100849.97;10347169;28;22062;-79
2023/02/27 01:52:57;;;;;;;7.85;3.70;;;;;;;-3.37;56.13;100844.06;10345319;28;20527;-79
2023/02/27 01:57:59;;;;;;;8.80;3.75;;;;;;;-3.32;56.22;100834.72;10350706;28;20068;-79
2023/02/27 02:03:38;;;;;;;9.48;3.58;;;;;;;-3.36;56.75;100840.63;10351613;28;20041;-80
2023/02/27 02:08:46;;;;;;;8.18;3.63;;;;;;;-3.37;56.40;100833.81;10353458;28;20060;-79
2023/02/27 02:13:54;;;;;;;9.07;3.88;;;;;;;-3.40;56.00;100841.44;10353810;28;20045;-79
2023/02/27 02:19:34;;;;;;;9.88;4.05;;;;;;;-3.65;56.29;100837.78;10344358;28;20057;-79
2023/02/27 02:24:57;;;;;;;9.77;3.50;;;;;;;-3.61;56.81;100839.53;10349575;28;20058;-79
2023/02/27 02:30:12;;;;;;;7.93;3.13;;;;;;;-3.60;56.73;100845.47;10352525;28;20050;-79
2023/02/27 02:35:49;;;;;;;8.43;3.60;;;;;;;-3.69;56.96;100852.19;10344957;28;20058;-78
2023/02/27 02:41:09;;;;;;;6.88;3.63;;;;;;;-3.65;56.73;100852.25;10350108;28;20427;-79
2023/02/27 02:46:13;;;;;;;6.18;2.80;;;;;;;-3.67;56.96;100852.25;10352429;28;20056;-78
2023/02/27 02:51:37;;;;;;;6.68;2.90;;;;;;;-3.79;57.25;100845.25;10351578;28;20050;-79
2023/02/27 02:56:53;;;;;;;5.97;2.90;;;;;;;-3.75;57.22;100847.00;10354551;28;20058;-78
2023/02/27 03:02:20;;;;;;;6.45;3.00;;;;;;;-3.75;57.12;100847.00;10355623;28;20060;-79
2023/02/27 03:07:31;;;;;;;6.68;3.22;;;;;;;-3.85;56.85;100844.31;10338242;28;20050;-78
2023/02/27 03:12:35;;;;;;;7.45;3.50;;;;;;;-4.00;57.29;100847.56;10358244;28;20064;-79
2023/02/27 03:17:52;;;;;;;6.38;2.80;;;;;;;-4.02;57.82;100851.78;10356740;28;20653;-79
2023/02/27 03:22:58;;;;;;;9.25;4.10;;;;;;;-3.99;58.03;100862.03;10356007;28;20491;-79
2023/02/27 03:28:06;;;;;;;6.85;3.67;;;;;;;-3.96;57.75;100856.97;10359092;28;20108;-79
2023/02/27 03:33:18;;;;;;;6.65;3.90;;;;;;;-3.94;58.06;100860.41;10355966;28;20042;-79
2023/02/27 03:38:37;;;;;;;10.27;5.50;;;;;;;-3.98;58.35;100868.88;10353900;28;20136;-79
2023/02/27 03:43:57;;;;;;;8.35;4.40;;;;;;;-4.05;59.07;100866.19;10355218;28;20084;-79
2023/02/27 03:48:59;;;;;;;6.35;3.50;;;;;;;-4.08;58.99;100864.47;10350416;28;20063;-78
2023/02/27 03:54:13;;;;;;;6.78;3.20;;;;;;;-4.05;59.31;100872.16;10355834;28;20061;-78
2023/02/27 03:59:15;;;;;;;11.35;3.78;;;;;;;-4.15;59.33;100872.00;10354354;28;20050;-80
2023/02/27 04:04:17;;;;;;;9.18;3.70;;;;;;;-4.20;59.78;100869.38;10350699;28;20071;-79
2023/02/27 04:09:28;;;;;;;7.30;3.25;;;;;;;-4.16;60.16;100877.97;10352210;28;20052;-79
2023/02/27 04:14:58;;;;;;;7.07;3.97;;;;;;;-4.21;59.99;100884.69;10350597;28;20064;-79
2023/02/27 04:20:34;;;;;;;5.57;2.97;;;;;;;-4.29;60.20;100886.28;10358297;28;20105;-77
2023/02/27 04:25:45;;;;;;;7.30;2.80;;;;;;;-4.31;60.16;100896.47;10349137;28;20475;-77
2023/02/27 04:31:01;;;;;;;7.43;2.73;;;;;;;-4.41;60.34;100892.06;10351139;28;20038;-78
2023/02/27 04:36:38;;;;;;;5.10;2.75;;;;;;;-4.41;60.53;100894.63;10338224;28;20991;-78
2023/02/27 04:41:58;;;;;;;6.60;3.08;;;;;;;-4.44;60.55;100902.22;10341661;28;20085;-79
2023/02/27 04:47:02;;;;;;;6.40;3.17;;;;;;;-4.49;60.03;100908.94;10346970;28;20832;-79
2023/02/27 04:52:11;;;;;;;7.45;3.80;;;;;;;-4.52;60.32;100917.41;10343702;28;20060;-79
2023/02/27 04:57:18;;;;;;;5.90;3.20;;;;;;;-4.53;60.50;100923.38;10344961;28;20054;-78
2023/02/27 05:02:34;;;;;;;8.15;3.25;;;;;;;-4.58;61.16;100929.22;10341911;28;20514;-81
2023/02/27 05:07:55;;;;;;;27.58;3.60;;;;;;;-4.64;61.33;100926.56;10338138;28;20151;-80
2023/02/27 05:13:18;;;;;;;5.90;2.90;;;;;;;-4.69;61.50;100928.19;10343364;28;20044;-78
2023/02/27 05:18:22;;;;;;;5.95;2.90;;;;;;;-4.65;60.75;100938.44;10347027;28;20570;-80
2023/02/27 05:23:47;;;;;;;5.93;3.20;;;;;;;-4.64;60.98;100939.31;10347252;28;20056;-78
2023/02/27 05:29:32;;;;;;;4.93;2.75;;;;;;;-4.72;61.55;100940.88;10347755;28;20062;-77
2023/02/27 05:34:41;;;;;;;7.45;2.88;;;;;;;-4.67;60.83;100952.88;10358209;28;20588;-78
2023/02/27 05:39:46;;;;;;;7.78;3.30;;;;;;;-4.70;60.80;100951.97;10351239;28;20057;-80
2023/02/27 05:44:59;;;;;;;11.05;3.20;;;;;;;-4.82;61.12;100955.16;10352241;28;20045;-78
2023/02/27 05:50:12;;;;;;;12.27;3.42;;;;;;;-4.80;61.60;100953.50;10344120;28;20054;-78
2023/02/27 05:55:29;;;;;;;5.38;2.92;;;;;;;-4.87;61.37;100956.75;10337830;28;20511;-79
2023/02/27 06:00:47;;;;;;;6.45;3.08;;;;;;;-4.85;61.50;100951.72;10350571;28;20156;-80
2023/02/27 06:05:52;;;;;;;6.10;3.30;;;;;;;-4.85;61.01;100954.25;10347089;28;20081;-82
2023/02/27 06:10:54;;;;;;;5.80;3.28;;;;;;;-4.89;61.17;100960.13;10349450;28;20965;-83
2023/02/27 06:15:55;;;;;;;22.70;7.30;;;;;;;-4.95;61.40;100962.56;10348118;28;20066;-84
2023/02/27 06:20:57;;;;;;;9.27;4.53;;;;;;;-4.85;61.38;100969.56;10343138;28;20077;-81
2023/02/27 06:25:59;;;;;;;7.05;3.05;;;;;;;-4.82;61.32;100977.25;10348438;28;20058;-83
2023/02/27 06:31:01;;;;;;;6.65;3.50;;;;;;;-4.71;61.08;100984.28;10349900;28;20052;-83
2023/02/27 06:36:02;;;;;;;7.45;3.40;;;;;;;-4.64;61.14;100992.91;10346387;28;20050;-78
2023/02/27 06:41:05;;;;;;;7.55;3.53;;;;;;;-4.65;61.00;100989.50;10346986;28;20100;-81
2023/02/27 06:46:06;;;;;;;10.35;3.67;;;;;;;-4.57;60.94;100989.66;10357850;28;20052;-81
2023/02/27 06:51:08;;;;;;;5.80;3.10;;;;;;;-4.44;60.83;100999.22;10355823;28;20046;-81
2023/02/27 06:56:10;;;;;;;5.63;3.00;;;;;;;-4.34;60.89;101000.25;10354450;28;20427;-81
2023/02/27 07:01:12;;;;;;;8.55;3.05;;;;;;;-4.27;60.83;100996.97;10359156;28;20064;-80
2023/02/27 07:06:14;;;;;;;17.15;3.03;;;;;;;-4.14;60.96;101004.00;10358558;28;20058;-80
2023/02/27 07:11:15;;;;;;;9.95;3.00;;;;;;;-4.00;60.82;101002.53;10357270;28;20049;-80
2023/02/27 07:16:17;;;;;;;6.85;2.88;;;;;;;-3.93;60.78;101009.44;10360075;28;20057;-80
2023/02/27 07:21:19;;;;;;;6.32;2.90;;;;;;;-3.72;60.63;101004.66;10357131;28;20050;-80
2023/02/27 07:26:21;;;;;;;4.18;2.65;;;;;;;-3.52;60.71;101018.59;10358970;28;20498;-80
2023/02/27 07:31:22;;;;;;;16.58;2.85;;;;;;;-3.36;60.71;101030.75;10358252;28;20056;-80
2023/02/27 07:36:24;;;;;;;5.45;2.70;;;;;;;-3.21;60.62;101025.84;10357643;28;20066;-80
2023/02/27 07:41:26;;;;;;;11.57;2.92;;;;;;;-2.89;60.62;101028.81;10354952;28;20061;-80
2023/02/27 07:46:32;;;;;;;5.65;2.60;;;;;;;-2.52;60.21;101030.94;10357157;28;20067;-80
2023/02/27 07:51:33;;;;;;;4.95;3.03;;;;;;;-2.13;59.39;101031.34;10357571;28;20052;-80
2023/02/27 07:56:35;;;;;;;5.82;3.05;;;;;;;-1.74;59.27;101024.81;10355441;28;20094;-80
2023/02/27 08:01:37;;;;;;;6.30;2.80;;;;;;;-1.44;58.26;101031.00;10355883;28;20068;-80
2023/02/27 08:06:39;;;;;;;9.45;2.78;;;;;;;-1.15;57.64;101028.59;10356271;28;20050;-79
2023/02/27 08:11:40;;;;;;;6.28;2.70;;;;;;;-0.83;56.95;101023.59;10354477;28;20053;-80
2023/02/27 08:16:42;;;;;;;9.88;2.70;;;;;;;-0.56;56.58;101024.56;10355135;28;20134;-78
2023/02/27 08:21:44;;;;;;;5.50;2.60;;;;;;;-0.31;55.77;101016.03;10351571;28;20046;-78
2023/02/27 08:26:46;;;;;;;9.80;3.17;;;;;;;0.09;55.32;101016.06;10347942;28;20052;-78
2023/02/27 08:31:51;;;;;;;8.75;3.08;;;;;;;0.34;54.04;101025.50;10348450;28;20133;-78
2023/02/27 08:36:53;;;;;;;6.13;3.72;;;;;;;0.38;53.85;101028.03;10347019;28;20062;-78
2023/02/27 08:41:55;;;;;;;6.53;2.97;;;;;;;0.69;53.06;101017.72;10350612;28;20056;-78
2023/02/27 08:46:58;;;;;;;7.35;2.55;;;;;;;0.92;52.24;101027.06;10353287;28;20499;-78
2023/02/27 08:52:00;;;;;;;4.90;2.00;;;;;;;0.98;51.67;101028.75;10354106;28;20045;-78
2023/02/27 08:57:02;;;;;;;3.78;1.67;;;;;;;0.94;51.84;101016.75;10347393;28;20058;-79
2023/02/27 09:02:05;;;;;;;4.25;1.95;;;;;;;0.91;51.14;101024.50;10351662;28;20054;-78
2023/02/27 09:07:06;;;;;;;4.05;2.05;;;;;;;1.59;51.01;101021.59;10352641;28;20092;-80
2023/02/27 09:12:08;;;;;;;5.18;2.30;;;;;;;1.91;50.31;101011.94;10354039;28;20056;-80
2023/02/27 09:17:10;;;;;;;4.75;2.20;;;;;;;1.95;49.73;101011.06;10352674;28;20060;-79
2023/02/27 09:22:12;;;;;;;5.55;2.10;;;;;;;1.32;50.30;101023.47;10352682;28;20049;-80
2023/02/27 09:27:14;;;;;;;5.13;2.10;;;;;;;1.27;50.34;101020.06;10351563;28;20102;-80
2023/02/27 09:32:15;;;;;;;4.80;1.70;;;;;;;1.62;48.72;101021.59;10350522;28;20041;-81
2023/02/27 09:37:18;;;;;;;3.35;1.60;;;;;;;1.61;48.89;101022.44;10352431;28;20054;-80
2023/02/27 09:42:24;;;;;;;3.65;1.63;;;;;;;0.96;48.78;101030.47;10351251;28;20049;-81
2023/02/27 09:47:40;;;;;;;3.70;1.70;;;;;;;0.95;49.26;101041.66;10350315;28;20115;-81
2023/02/27 09:52:43;;;;;;;3.00;1.60;;;;;;;0.83;48.54;101034.81;10350221;28;20068;-80
2023/02/27 09:57:56;;;;;;;3.38;1.63;;;;;;;0.92;48.48;101057.97;10351131;28;20072;-81
2023/02/27 10:03:28;;;;;;;4.45;1.60;;;;;;;1.02;47.51;101059.66;10344769;28;20487;-80
2023/02/27 10:08:39;;;;;;;4.15;1.92;;;;;;;1.00;47.96;101071.69;10347996;28;20046;-80
2023/02/27 10:13:56;;;;;;;3.88;1.52;;;;;;;1.22;46.98;101036.38;10339807;28;20641;-80
2023/02/27 10:19:04;;;;;;;3.47;1.52;;;;;;;1.53;47.08;101042.25;10356155;28;20140;-80
2023/02/27 10:24:10;;;;;;;5.20;1.67;;;;;;;1.72;47.40;101049.03;10351273;28;20824;-80
2023/02/27 10:29:35;;;;;;;3.90;1.55;;;;;;;1.66;46.55;101044.78;10360810;28;20050;-80
2023/02/27 10:34:42;;;;;;;4.85;1.40;;;;;;;2.04;46.66;101039.34;10349390;28;20148;-80
2023/02/27 10:39:59;;;;;;;2.60;1.50;;;;;;;2.16;45.98;101023.75;10354226;28;20081;-80
2023/02/27 10:45:04;;;;;;;2.97;1.27;;;;;;;2.42;45.94;101033.88;10352038;28;20116;-80
2023/02/27 10:50:24;;;;;;;2.63;1.35;;;;;;;2.31;45.26;101013.31;10353242;28;20057;-80
2023/02/27 10:55:32;;;;;;;3.20;1.50;;;;;;;2.42;44.40;101003.72;10351224;28;20068;-80
2023/02/27 11:00:36;;;;;;;4.03;1.70;;;;;;;2.70;44.79;101010.31;10353395;28;20050;-80
2023/02/27 11:05:39;;;;;;;3.65;1.55;;;;;;;2.72;44.58;100998.28;10348463;28;20811;-81
2023/02/27 11:11:06;;;;;;;4.38;1.50;;;;;;;2.32;43.84;101001.28;10353129;28;20049;-81
2023/02/27 11:16:20;;;;;;;3.20;1.63;;;;;;;2.40;44.04;100995.16;10350079;28;20054;-80
2023/02/27 11:21:29;;;;;;;4.13;1.55;;;;;;;2.79;43.25;100989.56;10353842;28;20050;-80
2023/02/27 11:26:33;;;;;;;3.47;1.75;;;;;;;2.76;45.57;100973.25;10345417;28;20758;-81
2023/02/27 11:31:36;;;;;;;3.78;1.83;;;;;;;2.98;44.79;100962.66;10352755;28;20053;-80
2023/02/27 11:37:16;;;;;;;5.25;1.65;;;;;;;2.79;42.76;100961.16;10349041;28;20558;-81
2023/02/27 11:42:27;;;;;;;8.65;1.92;;;;;;;3.27;43.84;100945.91;10350501;28;20414;-81
2023/02/27 11:47:36;;;;;;;2.42;1.40;;;;;;;3.53;43.05;100948.97;10345204;28;20050;-80
2023/02/27 11:52:51;;;;;;;2.35;1.30;;;;;;;3.65;43.56;100959.97;10357371;28;20049;-81
2023/02/27 11:58:01;;;;;;;2.95;1.38;;;;;;;3.59;41.33;100941.97;10345294;28;20397;-80
2023/02/27 12:03:10;;;;;;;2.60;1.45;;;;;;;3.78;41.32;100942.53;10343426;28;20057;-81
2023/02/27 12:08:22;;;;;;;4.03;1.40;;;;;;;3.94;40.62;100938.84;10344695;28;20053;-81
2023/02/27 12:13:28;;;;;;;4.30;1.40;;;;;;;3.79;41.11;100924.41;10350625;28;20085;-80
2023/02/27 12:18:42;;;;;;;1.90;1.20;;;;;;;3.77;39.32;100931.31;10347696;28;20068;-80
2023/02/27 12:23:52;;;;;;;4.20;1.30;;;;;;;3.87;40.24;100916.53;10350851;28;20403;-80
2023/02/27 12:29:25;;;;;;;3.40;1.27;;;;;;;4.00;38.11;100899.94;10350467;28;20139;-81
2023/02/27 12:34:45;;;;;;;2.72;1.30;;;;;;;4.28;38.38;100900.25;10351242;28;20484;-81
2023/02/27 12:39:47;;;;;;;2.83;1.30;;;;;;;4.42;38.88;100896.53;10345770;28;20049;-81
2023/02/27 12:45:35;;;;;;;3.10;1.20;;;;;;;4.05;37.48;100903.28;10346855;28;20495;-80
2023/02/27 12:51:01;;;;;;;5.18;1.10;;;;;;;4.59;38.17;100896.22;10334568;28;20046;-80
2023/02/27 12:56:17;;;;;;;4.32;1.00;;;;;;;4.64;37.30;100879.69;10345597;28;20577;-80
2023/02/27 13:01:32;;;;;;;3.80;1.20;;;;;;;5.22;37.56;100879.28;10351175;28;20061;-81
2023/02/27 13:06:48;;;;;;;4.43;0.93;;;;;;;5.37;36.75;100873.72;10346084;28;20741;-79
2023/02/27 13:12:11;;;;;;;2.22;1.13;;;;;;;5.26;36.44;100877.47;10349877;28;20049;-80
2023/02/27 13:17:22;;;;;;;3.05;1.00;;;;;;;5.27;35.91;100877.41;10342728;28;20060;-80
2023/02/27 13:22:49;;;;;;;2.33;1.13;;;;;;;4.63;35.42;100866.75;10346158;28;20057;-81
2023/02/27 13:28:00;;;;;;;1.40;0.88;;;;;;;5.05;35.40;100859.78;10346168;28;20053;-80
2023/02/27 13:33:13;;;;;;;;;;;;;;;4.90;34.58;100855.81;10346297;28;20081;-80
2023/02/27 13:38:32;;;;;;;1.55;0.98;;;;;;;5.14;35.06;100865.63;10343006;28;19932;-81
2023/02/27 13:43:37;;;;;;;3.22;1.10;;;;;;;5.35;34.93;100859.09;10336951;28;20046;-81
2023/02/27 13:49:11;;;;;;;3.28;0.98;;;;;;;4.83;33.68;100864.59;10341460;28;20049;-80
2023/02/27 13:54:38;;;;;;;2.97;1.15;;;;;;;4.89;33.16;100848.91;10359320;28;20532;-80
2023/02/27 13:59:43;;;;;;;;;;;;;;;4.78;34.63;100875.97;10341244;28;20530;-80
2023/02/27 14:04:50;;;;;;;4.38;1.20;;;;;;;5.39;34.97;100860.75;10354219;28;19932;-81
2023/02/27 14:10:06;;;;;;;1.52;0.90;;;;;;;5.18;34.21;100877.66;10353114;28;20147;-81
2023/02/27 14:15:16;;;;;;;1.98;1.00;;;;;;;5.42;33.83;100891.78;10354786;28;20046;-81
2023/02/27 14:20:18;;;;;;;2.38;1.10;;;;;;;5.57;35.02;100886.22;10350248;28;20184;-80
2023/02/27 14:25:32;;;;;;;2.10;0.90;;;;;;;5.69;34.57;100895.44;10352491;28;20065;-81
2023/02/27 14:30:41;;;;;;;1.77;1.10;;;;;;;4.92;33.96;100889.47;10354204;28;20077;-81
2023/02/27 14:35:54;;;;;;;3.13;1.20;;;;;;;4.87;33.51;100899.06;10344117;28;20065;-80
2023/02/27 14:41:07;;;;;;;1.80;0.90;;;;;;;5.43;34.27;100899.50;10348792;28;20058;-81
2023/02/27 14:46:22;;;;;;;1.77;0.95;;;;;;;4.93;34.22;100897.22;10345625;28;20509;-81
2023/02/27 14:51:31;;;;;;;2.25;1.02;;;;;;;4.72;35.41;100883.88;10346268;28;20057;-80
2023/02/27 14:56:36;;;;;;;3.33;1.00;;;;;;;4.55;35.24;100894.56;10335882;28;20190;-80
2023/02/27 15:01:41;;;;;;;2.67;1.15;;;;;;;4.23;36.32;100900.34;10344534;28;20046;-79
2023/02/27 15:06:50;;;;;;;2.67;1.30;;;;;;;4.62;36.12;100901.31;10337801;28;20396;-79
2023/02/27 15:12:02;;;;;;;3.15;1.38;;;;;;;4.62;36.25;100909.09;10343935;28;20144;-80
2023/02/27 15:17:17;;;;;;;6.43;1.10;;;;;;;4.39;35.60;100912.13;10339824;28;20054;-79
2023/02/27 15:23:12;;;;;;;3.15;1.10;;;;;;;4.24;36.47;100930.53;10338058;28;20038;-79
2023/02/27 15:28:32;;;;;;;1.80;0.98;;;;;;;4.08;36.59;100923.06;10339517;28;20046;-79
2023/02/27 15:33:35;;;;;;;2.47;1.40;;;;;;;4.11;36.96;100908.34;10334719;28;20045;-79
2023/02/27 15:38:37;;;;;;;3.67;1.40;;;;;;;4.23;36.71;100897.75;10338600;28;20053;-80
2023/02/27 15:43:40;;;;;;;1.83;1.20;;;;;;;4.25;36.74;100915.88;10344126;28;20049;-80
2023/02/27 15:48:42;;;;;;;1.25;1.00;;;;;;;4.11;37.05;100920.44;10339423;28;20064;-79
2023/02/27 15:53:49;;;;;;;4.78;1.30;;;;;;;4.25;36.75;100916.69;10343480;28;20046;-79
2023/02/27 15:58:56;;;;;;;4.47;1.35;;;;;;;4.18;37.11;100904.78;10339368;28;20057;-80
2023/02/27 16:04:05;;;;;;;2.27;1.20;;;;;;;4.06;37.55;100912.75;10341775;28;20451;-80
2023/02/27 16:09:31;;;;;;;1.75;1.20;;;;;;;3.89;37.09;100932.88;10339812;28;20053;-80
2023/02/27 16:14:43;;;;;;;3.97;1.23;;;;;;;3.74;37.05;100935.72;10343553;28;20131;-80
2023/02/27 16:19:45;;;;;;;3.72;1.30;;;;;;;3.70;38.36;100937.47;10340268;28;20061;-80
2023/02/27 16:24:48;;;;;;;2.70;1.30;;;;;;;3.76;38.11;100939.13;10340326;28;20418;-80
2023/02/27 16:29:54;;;;;;;2.33;1.23;;;;;;;3.64;38.20;100942.75;10336428;28;20675;-80
2023/02/27 16:35:20;;;;;;;4.22;1.15;;;;;;;3.34;37.53;100952.69;10335099;28;20052;-80
2023/02/27 16:40:28;;;;;;;1.70;1.00;;;;;;;3.42;38.56;100945.66;10326571;28;20099;-78
2023/02/27 16:45:31;;;;;;;2.75;1.30;;;;;;;3.34;38.40;100957.84;10310092;28;20324;-79
2023/02/27 16:50:53;;;;;;;2.10;1.20;;;;;;;3.40;38.39;100966.38;10320096;28;20053;-78
2023/02/27 16:55:56;;;;;;;4.90;1.40;;;;;;;3.13;37.98;100974.50;10321219;28;20065;-78
2023/02/27 17:01:00;;;;;;;2.72;1.40;;;;;;;3.09;38.96;100984.91;10331396;28;20553;-78
2023/02/27 17:06:06;;;;;;;6.80;1.75;;;;;;;3.17;39.32;100978.78;10329009;28;20061;-78
2023/02/27 17:11:09;;;;;;;2.35;1.15;;;;;;;3.07;39.00;100990.09;10336984;28;20543;-78
2023/02/27 17:16:13;;;;;;;3.30;1.17;;;;;;;3.13;39.52;100986.59;10329752;28;20416;-79
2023/02/27 17:21:17;;;;;;;2.83;1.23;;;;;;;3.12;39.24;100996.06;10335899;28;20057;-78
2023/02/27 17:26:19;;;;;;;2.38;1.10;;;;;;;3.04;39.34;101001.34;10342620;28;20057;-78
2023/02/27 17:31:21;;;;;;;2.38;1.20;;;;;;;3.07;39.76;101009.94;10336464;28;20046;-78
2023/02/27 17:36:25;;;;;;;2.97;1.35;;;;;;;3.02;39.60;101017.72;10330482;28;20985;-78
2023/02/27 17:41:30;;;;;;;2.28;1.30;;;;;;;2.90;39.56;101017.88;10332189;28;20054;-78
2023/02/27 17:46:32;;;;;;;5.68;1.23;;;;;;;2.88;40.13;101024.78;10333406;28;20050;-79
2023/02/27 17:51:36;;;;;;;4.50;1.40;;;;;;;2.72;39.87;101018.06;10327490;28;20487;-78
2023/02/27 17:56:40;;;;;;;3.83;1.33;;;;;;;2.75;39.84;101029.22;10332097;28;20049;-78
2023/02/27 18:01:42;;;;;;;3.22;1.40;;;;;;;2.73;40.16;101030.97;10335842;28;20049;-79
2023/02/27 18:06:44;;;;;;;5.38;3.10;;;;;;;2.61;40.00;101031.09;10329812;28;20054;-79
2023/02/27 18:11:46;;;;;;;6.32;3.78;;;;;;;2.72;40.38;101023.25;10335949;28;20046;-77
2023/02/27 18:16:49;;;;;;;6.13;2.75;;;;;;;2.69;40.41;101033.59;10333739;28;20104;-79
2023/02/27 18:21:59;;;;;;;3.35;1.73;;;;;;;2.61;41.16;101030.22;10332825;28;20062;-79
2023/02/27 18:27:01;;;;;;;7.00;1.63;;;;;;;2.46;41.67;101031.22;10325466;28;20056;-78
2023/02/27 18:32:05;;;;;;;3.58;1.55;;;;;;;2.36;41.45;101031.34;10327405;28;20408;-79
2023/02/27 18:37:08;;;;;;;4.07;1.50;;;;;;;2.35;41.72;101030.50;10330743;28;20053;-79
2023/02/27 18:42:11;;;;;;;8.65;2.90;;;;;;;2.32;41.86;101030.50;10337626;28;20049;-78
2023/02/27 18:47:13;;;;;;;3.10;1.67;;;;;;;2.36;41.98;101033.94;10339511;28;20108;-78
2023/02/27 18:52:16;;;;;;;6.70;2.50;;;;;;;2.34;41.95;101025.34;10340645;28;20719;-78
2023/02/27 18:57:18;;;;;;;4.80;2.72;;;;;;;2.39;42.07;101024.44;10331681;28;20505;-79
2023/02/27 19:02:20;;;;;;;3.38;1.60;;;;;;;2.47;42.42;101027.78;10338194;28;20503;-78
2023/02/27 19:07:22;;;;;;;5.22;1.73;;;;;;;2.45;42.54;101020.94;10332695;28;20503;-79
2023/02/27 19:12:25;;;;;;;4.10;1.60;;;;;;;2.31;42.77;101028.81;10336326;28;20049;-79
2023/02/27 19:17:27;;;;;;;4.07;1.95;;;;;;;2.43;43.15;101026.09;10336598;28;20053;-78
2023/02/27 19:22:29;;;;;;;3.53;1.67;;;;;;;2.49;42.68;101032.94;10334674;28;20045;-78
2023/02/27 19:27:32;;;;;;;5.00;2.28;;;;;;;2.47;42.92;101037.25;10323726;28;20418;-77
2023/02/27 19:32:34;;;;;;;4.68;2.17;;;;;;;2.33;43.17;101041.69;10330610;28;20038;-78
2023/02/27 19:37:36;;;;;;;6.25;2.70;;;;;;;2.19;43.58;101042.66;10348497;28;20065;-78
2023/02/27 19:42:37;;;;;;;3.28;1.80;;;;;;;2.25;43.59;101035.75;10349326;28;20052;-78
2023/02/27 19:47:46;;;;;;;3.13;1.70;;;;;;;2.32;43.28;101043.41;10349599;28;20415;-78
2023/02/27 19:52:48;;;;;;;3.72;1.77;;;;;;;2.45;44.17;101039.00;10350523;28;21086;-78
2023/02/27 19:57:50;;;;;;;5.03;1.90;;;;;;;2.57;44.02;101052.66;10347260;28;20309;-79
2023/02/27 20:02:53;;;;;;;6.88;2.60;;;;;;;2.52;43.73;101054.41;10353448;28;20046;-79
2023/02/27 20:07:57;;;;;;;6.90;2.03;;;;;;;2.49;44.45;101057.03;10347591;28;20050;-79
2023/02/27 20:13:00;;;;;;;6.38;2.42;;;;;;;2.53;44.25;101055.28;10349909;28;20056;-79
2023/02/27 20:18:01;;;;;;;7.03;1.95;;;;;;;2.45;44.61;101068.25;10341586;28;20415;-79
2023/02/27 20:23:06;;;;;;;4.15;2.08;;;;;;;2.30;44.68;101060.63;10337484;28;20056;-78
2023/02/27 20:28:09;;;;;;;3.90;1.90;;;;;;;2.32;45.05;101060.66;10338108;28;20053;-79
2023/02/27 20:33:12;;;;;;;5.30;1.85;;;;;;;2.37;45.31;101059.72;10339426;28;20050;-79
2023/02/27 20:38:15;;;;;;;5.13;2.40;;;;;;;2.27;45.20;101049.47;10341590;28;20053;-79
2023/02/27 20:43:17;;;;;;;5.93;2.15;;;;;;;2.19;45.59;101052.97;10348576;28;20042;-79
2023/02/27 20:48:18;;;;;;;4.25;2.00;;;;;;;1.82;46.01;101055.84;10351876;28;20081;-79
2023/02/27 20:53:20;;;;;;;6.53;2.60;;;;;;;1.66;46.39;101065.41;10349418;28;20077;-79
2023/02/27 20:58:22;;;;;;;5.22;2.55;;;;;;;1.56;46.70;101061.16;10352379;28;20056;-78
2023/02/27 21:03:24;;;;;;;8.68;2.60;;;;;;;1.52;46.73;101059.47;10347576;28;20042;-78
2023/02/27 21:08:28;;;;;;;6.22;2.40;;;;;;;1.36;47.05;101055.22;10352036;28;20045;-79
2023/02/27 21:13:30;;;;;;;5.75;2.42;;;;;;;1.29;47.33;101054.41;10349934;28;20050;-78
2023/02/27 21:18:32;;;;;;;7.15;2.58;;;;;;;1.16;47.96;101057.03;10346939;28;20444;-78
2023/02/27 21:23:39;;;;;;;5.90;2.78;;;;;;;1.27;47.72;101063.88;10347216;28;20387;-78
2023/02/27 21:29:32;;;;;;;3.88;2.15;;;;;;;1.34;47.55;101051.78;10345227;28;20076;-78
2023/02/27 21:34:36;;;;;;;6.40;2.60;;;;;;;1.44;47.52;101057.78;10343569;28;20056;-79
2023/02/27 21:39:39;;;;;;;6.72;2.85;;;;;;;1.60;47.83;101056.84;10338948;28;20756;-78
2023/02/27 21:44:42;;;;;;;6.93;2.60;;;;;;;1.69;47.82;101044.75;10341047;28;20821;-78
2023/02/27 21:49:45;;;;;;;5.57;2.70;;;;;;;1.79;47.78;101046.41;10342645;28;20050;-79
2023/02/27 21:54:47;;;;;;;5.38;2.60;;;;;;;1.95;47.57;101050.56;10343465;28;20085;-78
2023/02/27 21:59:49;;;;;;;5.80;2.80;;;;;;;1.76;48.31;101050.72;10345248;28;20054;-79
2023/02/27 22:04:51;;;;;;;4.55;2.45;;;;;;;1.59;48.91;101050.81;10341876;28;20054;-78
2023/02/27 22:09:52;;;;;;;6.72;2.80;;;;;;;1.73;48.69;101035.25;10346009;28;20120;-78
2023/02/27 22:14:54;;;;;;;7.63;2.75;;;;;;;1.77;48.75;101048.13;10343649;28;20061;-78
2023/02/27 22:19:56;;;;;;;5.28;2.67;;;;;;;1.84;49.05;101044.66;10349630;28;20064;-79
2023/02/27 22:24:58;;;;;;;5.32;2.75;;;;;;;1.64;49.88;101048.22;10350959;28;20042;-79
2023/02/27 22:30:00;;;;;;;6.68;2.58;;;;;;;1.57;50.25;101049.09;10345265;28;20431;-79
2023/02/27 22:35:01;;;;;;;6.60;2.60;;;;;;;1.50;50.35;101057.75;10345290;28;20632;-78
2023/02/27 22:40:04;;;;;;;7.43;2.78;;;;;;;1.59;50.56;101043.09;10345366;28;20133;-78
2023/02/27 22:45:06;;;;;;;8.23;3.00;;;;;;;1.64;50.47;101048.22;10348969;28;20058;-79
2023/02/27 22:50:08;;;;;;;4.72;2.40;;;;;;;1.48;50.80;101044.88;10353031;28;20064;-78
2023/02/27 22:55:10;;;;;;;5.90;2.65;;;;;;;1.43;51.11;101044.03;10347002;28;20053;-78
2023/02/27 23:00:12;;;;;;;8.30;3.22;;;;;;;1.48;51.25;101044.88;10348631;28;20049;-78
2023/02/27 23:05:13;;;;;;;5.25;2.38;;;;;;;1.53;51.23;101047.41;10348319;28;20047;-78
2023/02/27 23:10:15;;;;;;;4.85;2.78;;;;;;;1.48;51.63;101054.31;10348280;28;20054;-78
2023/02/27 23:15:17;;;;;;;7.30;2.95;;;;;;;1.30;52.36;101058.69;10344106;28;20492;-78
2023/02/27 23:20:19;;;;;;;8.55;2.90;;;;;;;1.28;52.18;101062.13;10346663;28;20053;-78
2023/02/27 23:25:21;;;;;;;6.65;2.65;;;;;;;1.19;52.45;101065.63;10345367;28;20050;-78
2023/02/27 23:30:23;;;;;;;6.38;2.80;;;;;;;1.00;52.96;101060.53;10339600;28;20053;-78
2023/02/27 23:35:25;;;;;;;6.10;3.00;;;;;;;0.93;53.08;101069.13;10345255;28;20042;-78
2023/02/27 23:40:27;;;;;;;7.28;2.80;;;;;;;0.83;53.23;101073.44;10358040;28;20049;-78
2023/02/27 23:45:30;;;;;;;6.60;2.85;;;;;;;0.68;53.69;101075.19;10349686;28;20045;-78